Time;durP1;ratioP1;P1;durP2;ratioP2;P2;SDS_P1;SDS_P2;PMS_P1;PMS_P2;Temp;Humidity;BMP_temperature;BMP_pressure;BME280_temperature;BME280_humidity;BME280_pressure;Samples;Min_cycle;Max_cycle;Signal;HPM_P1;HPM_P2
2022/07/25 00:01:12;;;;;;;12.90;11.60;;;18.90;99.90;;;;;;5153504;27;20198;-79
2022/07/25 00:03:46;;;;;;;12.10;10.80;;;18.90;99.90;;;;;;5152972;27;20217;-78
2022/07/25 00:06:15;;;;;;;11.83;10.73;;;18.80;99.90;;;;;;5154904;27;20192;-77
2022/07/25 00:08:47;;;;;;;13.67;12.30;;;18.80;99.90;;;;;;5157823;27;20219;-76
2022/07/25 00:11:16;;;;;;;12.17;11.07;;;18.90;99.90;;;;;;5157758;27;20210;-77
2022/07/25 00:13:44;;;;;;;12.80;11.60;;;18.80;99.90;;;;;;5157959;27;20277;-77
2022/07/25 00:16:13;;;;;;;12.63;11.40;;;18.80;99.90;;;;;;5157510;27;20270;-77
2022/07/25 00:18:41;;;;;;;12.70;11.50;;;18.70;99.90;;;;;;5156958;27;20313;-79
2022/07/25 00:21:09;;;;;;;12.20;11.00;;;18.70;99.90;;;;;;5157516;27;20210;-77
2022/07/25 00:23:38;;;;;;;14.20;12.13;;;18.60;99.90;;;;;;5157363;27;20194;-77
2022/07/25 00:26:07;;;;;;;13.03;11.73;;;18.60;99.90;;;;;;5157697;27;20205;-77
2022/07/25 00:28:35;;;;;;;14.13;12.73;;;18.60;99.90;;;;;;5154584;27;20242;-80
2022/07/25 00:31:04;;;;;;;14.77;12.57;;;18.60;99.90;;;;;;5144793;27;20217;-79
2022/07/25 00:33:32;;;;;;;13.30;12.00;;;18.60;99.90;;;;;;5155366;27;20205;-78
2022/07/25 00:36:01;;;;;;;13.90;12.50;;;18.60;99.90;;;;;;5155276;27;20201;-78
2022/07/25 00:38:29;;;;;;;13.60;12.20;;;18.50;99.90;;;;;;5154493;27;20201;-77
2022/07/25 00:40:57;;;;;;;14.07;12.50;;;18.50;99.90;;;;;;5154505;27;20213;-77
2022/07/25 00:43:27;;;;;;;14.57;12.60;;;18.50;99.90;;;;;;5154750;27;20209;-78
2022/07/25 00:45:57;;;;;;;13.37;11.83;;;18.40;99.90;;;;;;5154293;27;20197;-78
2022/07/25 00:48:26;;;;;;;13.60;12.20;;;18.30;99.90;;;;;;5151885;27;20201;-76
2022/07/25 00:50:56;;;;;;;14.00;12.47;;;18.30;99.90;;;;;;5150966;27;20269;-78
2022/07/25 00:53:27;;;;;;;13.83;12.43;;;18.30;99.90;;;;;;5146678;27;20270;-79
2022/07/25 00:55:55;;;;;;;13.27;11.97;;;18.20;99.90;;;;;;5134354;27;20225;-78
2022/07/25 00:58:23;;;;;;;14.57;13.07;;;18.20;99.90;;;;;;5132092;28;20210;-78
2022/07/25 01:00:57;;;;;;;13.33;12.00;;;18.20;99.90;;;;;;5130734;28;20206;-78
2022/07/25 01:03:25;;;;;;;14.10;12.70;;;18.20;99.90;;;;;;5125332;28;20193;-77
2022/07/25 01:05:54;;;;;;;14.73;13.23;;;18.20;99.90;;;;;;5130735;28;20214;-77
2022/07/25 01:08:22;;;;;;;14.60;13.10;;;18.10;99.90;;;;;;5134123;28;20201;-79
2022/07/25 01:10:51;;;;;;;14.00;12.53;;;18.10;99.90;;;;;;5134829;28;20190;-78
2022/07/25 01:13:22;;;;;;;14.63;13.20;;;18.10;99.90;;;;;;5130647;28;20225;-79
2022/07/25 01:15:50;;;;;;;15.27;13.77;;;18.10;99.90;;;;;;5136242;28;20210;-77
2022/07/25 01:18:20;;;;;;;15.93;14.30;;;18.00;99.90;;;;;;5135373;28;20285;-78
2022/07/25 01:20:49;;;;;;;14.67;13.13;;;18.10;99.90;;;;;;5135611;28;20190;-77
2022/07/25 01:23:20;;;;;;;15.37;13.77;;;18.10;99.90;;;;;;5135074;28;20210;-79
2022/07/25 01:25:48;;;;;;;15.07;13.60;;;18.00;99.90;;;;;;5135255;28;20209;-77
2022/07/25 01:28:17;;;;;;;16.40;14.03;;;17.90;99.90;;;;;;5132776;28;20218;-80
2022/07/25 01:30:45;;;;;;;16.33;14.63;;;17.90;99.90;;;;;;5121404;28;20234;-79
2022/07/25 01:33:16;;;;;;;15.00;13.33;;;17.90;99.90;;;;;;5118443;28;20226;-76
2022/07/25 01:35:45;;;;;;;14.70;13.30;;;17.90;99.90;;;;;;5119471;28;20292;-77
2022/07/25 01:38:16;;;;;;;16.90;14.50;;;17.90;99.90;;;;;;5114274;28;20339;-76
2022/07/25 01:40:44;;;;;;;15.97;14.47;;;17.80;99.90;;;;;;5115029;28;20182;-77
2022/07/25 01:43:13;;;;;;;15.93;14.27;;;17.80;99.90;;;;;;5114784;28;20297;-76
2022/07/25 01:45:42;;;;;;;16.00;14.40;;;17.80;99.90;;;;;;5120711;28;20292;-77
2022/07/25 01:48:10;;;;;;;15.87;14.20;;;17.80;99.90;;;;;;5135114;27;20209;-77
2022/07/25 01:50:38;;;;;;;19.50;15.27;;;17.70;99.90;;;;;;5138487;27;20231;-76
2022/07/25 01:53:07;;;;;;;18.17;15.13;;;17.70;99.90;;;;;;5139174;27;20233;-78
2022/07/25 01:55:40;;;;;;;17.77;15.50;;;17.80;99.90;;;;;;5157406;27;20193;-76
2022/07/25 01:58:10;;;;;;;16.17;14.50;;;17.80;99.90;;;;;;5160023;27;20674;-76
2022/07/25 02:00:38;;;;;;;15.77;14.17;;;17.70;99.90;;;;;;5159319;27;20204;-76
2022/07/25 02:05:52;;;;;;;15.67;14.20;;;17.70;99.90;;;;;;5147381;27;20214;-75
2022/07/25 02:08:22;;;;;;;15.63;14.07;;;17.60;99.90;;;;;;5128921;27;20274;-76
2022/07/25 02:10:52;;;;;;;15.67;13.77;;;17.60;99.90;;;;;;5117990;28;20635;-76
2022/07/25 02:13:20;;;;;;;16.57;14.83;;;17.60;99.90;;;;;;5117847;28;20265;-76
2022/07/25 02:15:49;;;;;;;16.93;15.33;;;17.50;99.90;;;;;;5118167;28;20237;-77
2022/07/25 02:18:17;;;;;;;17.00;15.40;;;17.60;99.90;;;;;;5117931;28;20284;-76
2022/07/25 02:20:45;;;;;;;17.03;15.37;;;17.60;99.90;;;;;;5116941;28;20210;-76
2022/07/25 02:23:14;;;;;;;17.73;15.83;;;17.70;99.90;;;;;;5116875;28;20213;-76
2022/07/25 02:25:42;;;;;;;17.10;15.17;;;17.70;99.90;;;;;;5136399;27;20609;-77
2022/07/25 02:28:12;;;;;;;17.53;14.57;;;17.60;99.90;;;;;;5137950;27;20205;-76
2022/07/25 02:30:40;;;;;;;16.53;14.93;;;17.60;99.90;;;;;;5137682;27;20216;-77
2022/07/25 02:33:08;;;;;;;17.60;15.07;;;17.60;99.90;;;;;;5139654;27;20309;-76
2022/07/25 02:35:36;;;;;;;17.33;14.87;;;17.50;99.90;;;;;;5141593;27;20224;-75
2022/07/25 02:38:04;;;;;;;16.60;14.87;;;17.50;99.90;;;;;;5145563;27;20206;-76
2022/07/25 02:40:33;;;;;;;16.03;14.53;;;17.50;99.90;;;;;;5146824;27;20235;-75
2022/07/25 02:43:01;;;;;;;17.50;14.03;;;17.40;99.90;;;;;;5147377;27;20209;-76
2022/07/25 02:45:31;;;;;;;16.80;15.10;;;17.40;99.90;;;;;;5147076;27;20214;-76
2022/07/25 02:48:01;;;;;;;16.67;14.97;;;17.30;99.90;;;;;;5147284;27;20201;-76
2022/07/25 02:50:29;;;;;;;17.23;15.47;;;17.20;99.90;;;;;;5146771;27;20225;-77
2022/07/25 02:52:57;;;;;;;16.97;15.23;;;17.20;99.90;;;;;;5147689;27;20225;-77
2022/07/25 02:55:25;;;;;;;18.37;16.53;;;17.20;99.90;;;;;;5145354;27;20206;-76
2022/07/25 02:57:54;;;;;;;17.53;15.77;;;17.10;99.90;;;;;;5144026;27;20233;-76
2022/07/25 03:00:22;;;;;;;18.97;17.03;;;17.00;99.90;;;;;;5141680;27;20209;-76
2022/07/25 03:02:53;;;;;;;17.10;15.50;;;17.00;99.90;;;;;;5141024;27;20198;-76
2022/07/25 03:05:21;;;;;;;19.73;16.00;;;17.00;99.90;;;;;;5138743;27;20546;-76
2022/07/25 03:07:50;;;;;;;18.00;16.23;;;17.00;99.90;;;;;;5136431;27;20237;-76
2022/07/25 03:10:18;;;;;;;18.33;16.50;;;17.00;99.90;;;;;;5135976;27;20209;-76
2022/07/25 03:12:46;;;;;;;17.03;15.10;;;17.00;99.90;;;;;;5135869;27;20217;-77
2022/07/25 03:15:15;;;;;;;17.23;15.50;;;17.00;99.90;;;;;;5136223;27;20237;-75
2022/07/25 03:17:43;;;;;;;17.53;15.67;;;17.00;99.90;;;;;;5135960;27;20653;-76
2022/07/25 03:20:13;;;;;;;17.37;15.77;;;16.90;99.90;;;;;;5135539;27;20616;-76
2022/07/25 03:22:41;;;;;;;17.67;15.87;;;16.90;99.90;;;;;;5135880;27;20247;-76
2022/07/25 03:25:10;;;;;;;18.30;16.13;;;16.80;99.90;;;;;;5136506;27;20205;-77
2022/07/25 03:27:48;;;;;;;17.20;15.50;;;16.80;99.90;;;;;;5135084;27;20189;-76
2022/07/25 03:30:17;;;;;;;17.13;15.50;;;16.80;99.90;;;;;;5135631;27;20613;-75
2022/07/25 03:32:45;;;;;;;18.57;16.67;;;16.80;99.90;;;;;;5135582;27;20716;-76
2022/07/25 03:35:15;;;;;;;19.30;17.27;;;16.70;99.90;;;;;;5135418;27;20266;-76
2022/07/25 03:37:44;;;;;;;17.60;15.67;;;16.70;99.90;;;;;;5135532;27;20245;-77
2022/07/25 03:40:14;;;;;;;17.50;15.80;;;16.70;99.90;;;;;;5134690;27;20270;-77
2022/07/25 03:42:43;;;;;;;17.53;15.67;;;16.70;99.90;;;;;;5114394;27;20631;-75
2022/07/25 03:45:11;;;;;;;18.27;16.47;;;16.70;99.90;;;;;;5114812;28;20202;-76
2022/07/25 03:47:40;;;;;;;17.60;15.77;;;16.60;99.90;;;;;;5115594;28;20260;-75
2022/07/25 03:50:09;;;;;;;17.67;15.83;;;16.60;99.90;;;;;;5114213;28;20206;-75
2022/07/25 03:52:38;;;;;;;18.63;16.63;;;16.70;99.90;;;;;;5113565;28;20257;-75
2022/07/25 03:55:08;;;;;;;18.10;15.40;;;16.70;99.90;;;;;;5135950;27;20287;-76
2022/07/25 03:57:36;;;;;;;18.07;16.37;;;16.60;99.90;;;;;;5155361;27;20367;-76
2022/07/25 04:00:08;;;;;;;18.50;16.13;;;16.60;99.90;;;;;;5141814;27;20724;-78
2022/07/25 04:02:37;;;;;;;17.43;15.77;;;16.70;99.90;;;;;;5134272;27;20548;-76
2022/07/25 04:05:06;;;;;;;17.90;16.03;;;16.70;99.90;;;;;;5134316;27;20246;-76
2022/07/25 04:07:34;;;;;;;17.07;15.20;;;16.80;99.90;;;;;;5134450;27;20643;-75
2022/07/25 04:10:10;;;;;;;18.40;16.60;;;16.80;99.90;;;;;;5133433;27;20206;-76
2022/07/25 04:12:39;;;;;;;17.00;15.43;;;16.90;99.90;;;;;;5130087;27;20610;-76
2022/07/25 04:15:09;;;;;;;17.73;16.10;;;16.90;99.90;;;;;;5133908;27;20665;-77
2022/07/25 04:17:37;;;;;;;17.50;15.77;;;16.90;99.90;;;;;;5114672;27;20315;-78
2022/07/25 04:20:07;;;;;;;17.10;15.33;;;16.90;99.90;;;;;;5131682;27;20679;-76
2022/07/25 04:22:35;;;;;;;17.97;16.23;;;17.00;99.90;;;;;;5136093;27;20209;-76
2022/07/25 04:25:09;;;;;;;17.60;15.77;;;17.00;99.90;;;;;;5154839;27;20247;-78
2022/07/25 04:27:37;;;;;;;18.23;16.33;;;17.10;99.90;;;;;;5135480;27;20262;-76
2022/07/25 04:30:09;;;;;;;18.03;16.33;;;17.10;99.90;;;;;;5134089;27;20266;-77
2022/07/25 04:32:37;;;;;;;17.20;15.50;;;17.20;99.90;;;;;;5133624;27;20248;-76
2022/07/25 04:35:07;;;;;;;18.50;15.57;;;17.30;99.90;;;;;;5133779;27;20201;-75
2022/07/25 04:37:36;;;;;;;17.50;15.70;;;17.30;99.90;;;;;;5113523;28;20685;-76
2022/07/25 04:40:05;;;;;;;17.63;16.03;;;17.40;99.90;;;;;;5113725;28;20241;-76
2022/07/25 04:42:34;;;;;;;18.33;15.83;;;17.50;99.90;;;;;;5113887;28;20237;-76
2022/07/25 04:45:03;;;;;;;18.50;16.63;;;17.50;99.90;;;;;;5122118;27;20202;-76
2022/07/25 04:47:31;;;;;;;18.27;16.40;;;17.60;99.90;;;;;;5133783;27;20687;-76
2022/07/25 04:50:01;;;;;;;18.17;16.27;;;17.70;99.90;;;;;;5133783;27;20259;-75
2022/07/25 04:52:29;;;;;;;17.73;16.13;;;17.70;99.90;;;;;;5133446;27;20679;-75
2022/07/25 04:54:57;;;;;;;18.63;16.63;;;17.70;99.90;;;;;;5113416;28;20357;-75
2022/07/25 04:57:25;;;;;;;16.40;14.73;;;17.70;99.90;;;;;;5113218;28;20672;-76
2022/07/25 04:59:58;;;;;;;18.07;16.30;;;17.80;99.90;;;;;;5112829;28;20699;-76
2022/07/25 05:02:26;;;;;;;18.33;16.43;;;17.80;99.90;;;;;;5113462;28;20278;-75
2022/07/25 05:04:55;;;;;;;18.03;16.30;;;17.90;99.90;;;;;;5113485;28;20225;-74
2022/07/25 05:07:24;;;;;;;17.70;15.87;;;18.00;99.90;;;;;;5114060;28;20230;-76
2022/07/25 05:09:55;;;;;;;17.47;15.80;;;18.00;99.90;;;;;;5113619;28;20226;-76
2022/07/25 05:12:24;;;;;;;17.23;15.53;;;18.00;99.90;;;;;;5114607;28;20284;-74
2022/07/25 05:14:53;;;;;;;18.07;16.37;;;18.10;99.90;;;;;;5114027;28;20308;-76
2022/07/25 05:17:22;;;;;;;18.47;16.60;;;18.20;99.90;;;;;;5113922;28;20254;-75
2022/07/25 05:19:50;;;;;;;17.53;15.83;;;18.20;99.90;;;;;;5113546;28;20214;-76
2022/07/25 05:22:18;;;;;;;17.13;15.53;;;18.20;99.90;;;;;;5113072;28;20198;-76
2022/07/25 05:24:55;;;;;;;17.33;15.40;;;18.30;99.90;;;;;;5116337;28;20747;-75
2022/07/25 05:27:26;;;;;;;17.00;15.33;;;18.40;99.90;;;;;;5117909;28;20637;-75
2022/07/25 05:29:57;;;;;;;16.07;14.57;;;18.50;99.90;;;;;;5116198;28;20194;-77
2022/07/25 05:32:27;;;;;;;17.30;15.67;;;18.60;99.90;;;;;;5132096;27;20296;-76
2022/07/25 05:34:55;;;;;;;16.20;14.50;;;18.70;99.90;;;;;;5136977;27;20308;-76
2022/07/25 05:37:23;;;;;;;16.93;15.33;;;18.80;99.90;;;;;;5137023;27;20201;-75
2022/07/25 05:39:51;;;;;;;16.80;15.00;;;18.90;99.90;;;;;;5136560;27;20274;-76
2022/07/25 05:42:19;;;;;;;15.37;13.93;;;18.90;99.90;;;;;;5136594;27;20655;-76
2022/07/25 05:44:48;;;;;;;16.23;14.53;;;19.00;99.90;;;;;;5136745;27;20662;-77
2022/07/25 05:47:16;;;;;;;16.33;14.60;;;19.10;99.90;;;;;;5136641;27;20296;-76
2022/07/25 05:49:46;;;;;;;16.87;15.17;;;19.30;99.90;;;;;;5136689;27;20198;-77
2022/07/25 05:52:14;;;;;;;15.73;14.13;;;19.50;99.90;;;;;;5136558;27;20202;-74
2022/07/25 05:54:42;;;;;;;15.90;14.10;;;19.60;99.90;;;;;;5136844;27;20217;-76
2022/07/25 05:57:10;;;;;;;15.50;13.90;;;19.90;99.90;;;;;;5136616;27;20670;-75
2022/07/25 05:59:41;;;;;;;14.57;13.17;;;20.50;99.90;;;;;;5136668;27;20667;-76
2022/07/25 06:02:09;;;;;;;14.40;13.10;;;21.40;99.90;;;;;;5136483;27;20190;-76
2022/07/25 06:04:40;;;;;;;17.43;13.60;;;22.20;99.90;;;;;;5136628;27;20205;-77
2022/07/25 06:07:10;;;;;;;13.17;11.80;;;23.20;99.90;;;;;;5136454;27;20229;-78
2022/07/25 06:09:44;;;;;;;12.40;11.20;;;24.60;99.90;;;;;;5136374;27;20213;-80
2022/07/25 06:12:12;;;;;;;12.07;10.97;;;26.00;99.90;;;;;;5136722;27;20213;-80
2022/07/25 06:14:41;;;;;;;12.73;11.43;;;26.80;99.90;;;;;;5136675;27;20213;-78
2022/07/25 06:17:09;;;;;;;12.97;11.57;;;26.70;99.90;;;;;;5136297;27;20670;-79
2022/07/25 06:19:38;;;;;;;11.23;10.23;;;27.50;99.90;;;;;;5136749;27;20308;-79
2022/07/25 06:22:06;;;;;;;11.93;10.83;;;28.00;99.90;;;;;;5142157;27;20643;-80
2022/07/25 06:24:37;;;;;;;11.40;10.30;;;28.30;99.90;;;;;;5143246;27;20608;-81
2022/07/25 06:27:06;;;;;;;11.50;10.15;;;28.90;99.90;;;;;;5141169;27;20251;-81
2022/07/25 06:29:34;;;;;;;12.13;10.90;;;29.20;99.90;;;;;;5136432;27;20206;-81
2022/07/25 06:32:02;;;;;;;11.57;10.30;;;28.80;99.90;;;;;;5136836;27;20250;-81
2022/07/25 06:34:31;;;;;;;11.88;10.25;;;29.20;99.90;;;;;;5136269;27;20225;-82
2022/07/25 06:37:01;;;;;;;11.05;9.00;;;29.20;99.90;;;;;;5135751;27;20633;-80
2022/07/25 06:39:30;;;;;;;10.82;8.85;;;29.70;99.90;;;;;;5135771;27;20209;-80
2022/07/25 06:42:02;;;;;;;9.90;8.90;;;30.50;99.90;;;;;;5130597;27;20217;-80
2022/07/25 06:44:32;;;;;;;11.90;9.30;;;31.10;98.60;;;;;;5115516;28;20225;-82
2022/07/25 06:47:01;;;;;;;10.05;9.10;;;31.50;97.00;;;;;;5115767;28;20209;-80
2022/07/25 06:49:29;;;;;;;10.85;9.32;;;32.10;95.80;;;;;;5118108;28;20213;-83
2022/07/25 06:51:57;;;;;;;10.57;9.43;;;32.00;95.20;;;;;;5118118;28;20267;-81
2022/07/25 06:54:26;;;;;;;10.50;9.15;;;31.40;95.60;;;;;;5118914;28;20636;-82
2022/07/25 06:56:54;;;;;;;10.43;9.23;;;32.20;95.00;;;;;;5117652;28;20256;-83
2022/07/25 06:59:24;;;;;;;10.20;9.30;;;32.00;94.00;;;;;;5115535;28;20234;-83
2022/07/25 07:01:52;;;;;;;11.02;8.95;;;32.80;93.60;;;;;;5118674;28;20202;-82
2022/07/25 07:04:20;;;;;;;10.43;9.38;;;32.70;93.60;;;;;;5119404;28;20290;-82
2022/07/25 07:06:49;;;;;;;10.82;9.73;;;33.00;92.20;;;;;;5118193;28;20194;-82
2022/07/25 07:09:17;;;;;;;9.82;8.82;;;33.20;91.70;;;;;;5118461;28;20540;-82
2022/07/25 07:11:46;;;;;;;10.80;8.73;;;33.10;93.10;;;;;;5116371;28;20300;-83
2022/07/25 07:14:14;;;;;;;9.60;8.65;;;33.50;92.30;;;;;;5116312;28;20676;-82
2022/07/25 07:16:43;;;;;;;9.73;8.82;;;34.50;91.90;;;;;;5117613;28;20240;-83
2022/07/25 07:19:13;;;;;;;9.75;8.90;;;35.00;90.10;;;;;;5119781;27;20281;-83
2022/07/25 07:21:41;;;;;;;11.23;9.60;;;35.00;89.30;;;;;;5115697;28;20746;-83
2022/07/25 07:24:10;;;;;;;9.57;8.68;;;34.70;88.20;;;;;;5118749;28;20210;-83
2022/07/25 07:26:52;;;;;;;9.48;8.05;;;35.30;86.40;;;;;;5121274;28;20195;-82
2022/07/25 07:29:20;;;;;;;9.25;8.32;;;35.20;87.60;;;;;;5130609;27;20221;-83
2022/07/25 07:31:50;;;;;;;10.85;8.57;;;35.00;86.50;;;;;;5138684;27;20262;-83
2022/07/25 07:34:21;;;;;;;10.02;8.73;;;35.70;86.40;;;;;;5137813;27;20233;-84
2022/07/25 07:36:51;;;;;;;10.10;7.95;;;36.00;86.00;;;;;;5139905;27;20647;-82
2022/07/25 07:39:21;;;;;;;9.70;8.27;;;36.40;82.30;;;;;;5138976;27;20205;-84
2022/07/25 07:41:50;;;;;;;8.70;8.00;;;37.00;81.10;;;;;;5135563;27;20282;-85
2022/07/25 07:44:18;;;;;;;9.55;8.43;;;36.40;77.50;;;;;;5135845;27;20239;-84
2022/07/25 07:46:47;;;;;;;9.90;8.10;;;36.80;81.60;;;;;;5135798;27;20237;-84
2022/07/25 07:49:19;;;;;;;8.80;8.07;;;37.20;77.50;;;;;;5132569;27;20225;-84
2022/07/25 07:51:49;;;;;;;8.52;7.60;;;37.30;75.20;;;;;;5116904;27;20258;-83
2022/07/25 07:57:05;;;;;;;9.73;8.20;;;37.90;77.30;;;;;;5136091;27;20275;-83
2022/07/25 07:59:33;;;;;;;8.77;7.90;;;38.20;72.80;;;;;;5136065;27;20257;-83
2022/07/25 08:02:03;;;;;;;10.05;8.32;;;38.10;73.30;;;;;;5135284;27;20718;-86
2022/07/25 08:04:33;;;;;;;9.30;8.43;;;38.40;73.20;;;;;;5135549;27;20235;-84
2022/07/25 08:07:05;;;;;;;9.27;8.20;;;38.00;71.00;;;;;;5134388;27;20678;-83
2022/07/25 08:09:34;;;;;;;9.10;8.30;;;37.90;74.40;;;;;;5135330;27;20316;-84
2022/07/25 08:12:02;;;;;;;9.30;8.40;;;37.80;75.00;;;;;;5137151;27;20245;-85
2022/07/25 08:14:30;;;;;;;9.13;8.18;;;38.10;73.30;;;;;;5136213;27;20241;-85
2022/07/25 08:16:59;;;;;;;8.85;8.05;;;38.00;71.50;;;;;;5119974;27;20768;-84
2022/07/25 08:19:27;;;;;;;9.88;8.32;;;38.10;72.30;;;;;;5114073;28;20214;-85
2022/07/25 08:21:59;;;;;;;10.10;8.02;;;37.80;70.30;;;;;;5113103;28;20245;-83
2022/07/25 08:24:28;;;;;;;9.55;7.72;;;38.10;69.00;;;;;;5113899;28;20210;-85
2022/07/25 08:26:56;;;;;;;8.85;8.05;;;38.40;67.50;;;;;;5118250;27;20712;-84
2022/07/25 08:29:24;;;;;;;9.63;8.55;;;38.50;68.50;;;;;;5134156;27;20567;-84
2022/07/25 08:31:55;;;;;;;8.82;8.00;;;38.60;66.50;;;;;;5134837;27;20713;-84
2022/07/25 08:34:26;;;;;;;11.13;8.52;;;38.70;66.90;;;;;;5134756;27;20258;-84
2022/07/25 08:36:55;;;;;;;10.70;7.95;;;38.60;66.70;;;;;;5133886;27;20221;-84
2022/07/25 08:39:24;;;;;;;9.30;8.30;;;38.60;67.50;;;;;;5134947;27;20209;-84
2022/07/25 08:41:56;;;;;;;8.93;8.02;;;38.60;65.10;;;;;;5133679;27;20295;-84
2022/07/25 08:44:30;;;;;;;12.80;8.20;;;38.90;67.30;;;;;;5133868;27;20221;-84
2022/07/25 08:47:00;;;;;;;8.48;7.68;;;39.00;65.40;;;;;;5134195;27;20758;-84
2022/07/25 08:49:28;;;;;;;13.15;8.35;;;39.30;65.10;;;;;;5133771;27;20205;-84
2022/07/25 08:51:58;;;;;;;9.93;8.10;;;39.50;63.30;;;;;;5133635;27;20767;-86
2022/07/25 08:54:27;;;;;;;9.95;8.20;;;39.60;63.00;;;;;;5134279;27;20255;-86
2022/07/25 08:56:56;;;;;;;8.27;7.45;;;40.00;62.30;;;;;;5134394;27;20264;-84
2022/07/25 08:59:24;;;;;;;8.68;7.78;;;39.90;64.80;;;;;;5133527;27;20702;-84
2022/07/25 09:01:52;;;;;;;8.48;7.68;;;40.00;63.50;;;;;;5135486;27;20205;-85
2022/07/25 09:04:23;;;;;;;9.45;8.00;;;39.90;62.50;;;;;;5134403;27;20601;-84
2022/07/25 09:06:52;;;;;;;9.13;8.05;;;39.60;63.00;;;;;;5137027;28;20182;-83
2022/07/25 09:09:29;;;;;;;10.95;7.95;;;39.70;59.60;;;;;;5135099;28;20225;-84
2022/07/25 09:11:59;;;;;;;8.35;7.43;;;39.40;62.50;;;;;;5133973;28;20209;-84
2022/07/25 09:14:28;;;;;;;8.63;7.82;;;40.10;63.10;;;;;;5134065;28;20205;-82
2022/07/25 09:16:57;;;;;;;11.82;8.38;;;40.70;62.40;;;;;;5133276;28;20217;-85
2022/07/25 09:19:26;;;;;;;10.52;8.38;;;40.50;60.40;;;;;;5134526;28;20240;-84
2022/07/25 09:22:02;;;;;;;9.23;8.27;;;40.50;61.00;;;;;;5135425;28;20697;-84
2022/07/25 09:24:31;;;;;;;8.32;7.47;;;40.50;59.90;;;;;;5133953;28;20204;-85
2022/07/25 09:27:08;;;;;;;8.82;7.95;;;40.40;59.10;;;;;;5133327;28;20553;-84
2022/07/25 09:29:41;;;;;;;9.60;8.70;;;40.50;61.00;;;;;;5134298;28;20224;-85
2022/07/25 09:32:18;;;;;;;8.32;7.55;;;39.70;63.00;;;;;;5134470;28;20556;-84
2022/07/25 09:34:48;;;;;;;10.70;8.88;;;40.10;62.10;;;;;;5133936;28;20200;-85
2022/07/25 09:37:19;;;;;;;10.68;8.70;;;40.20;60.50;;;;;;5133853;28;20259;-86
2022/07/25 09:39:50;;;;;;;9.85;8.07;;;40.20;61.00;;;;;;5134277;28;20235;-86
2022/07/25 09:42:25;;;;;;;9.18;8.13;;;40.60;61.70;;;;;;5133416;28;20247;-84
2022/07/25 09:45:06;;;;;;;8.95;8.02;;;40.90;58.90;;;;;;5134059;28;20608;-86
2022/07/25 09:47:37;;;;;;;9.32;8.38;;;40.80;59.30;;;;;;5133747;28;20200;-86
2022/07/25 09:50:06;;;;;;;8.60;7.80;;;41.30;59.60;;;;;;5133519;28;20220;-86
2022/07/25 09:52:35;;;;;;;8.75;7.85;;;40.70;59.90;;;;;;5133801;28;20230;-85
2022/07/25 09:55:08;;;;;;;8.95;8.05;;;40.80;58.00;;;;;;5135093;28;20241;-84
2022/07/25 09:57:38;;;;;;;8.60;7.80;;;41.20;56.70;;;;;;5133251;28;20216;-87
2022/07/25 10:00:09;;;;;;;9.60;8.05;;;41.70;57.40;;;;;;5133411;28;20257;-86
2022/07/25 10:02:47;;;;;;;9.38;8.45;;;41.10;57.90;;;;;;5133082;28;20416;-84
2022/07/25 10:05:23;;;;;;;9.82;7.90;;;40.40;59.10;;;;;;5133172;28;20220;-86
2022/07/25 10:07:54;;;;;;;10.13;7.70;;;40.50;58.30;;;;;;5116600;28;20248;-84
2022/07/25 10:10:26;;;;;;;9.68;7.55;;;40.20;59.60;;;;;;5135613;27;20232;-85
2022/07/25 10:13:05;;;;;;;10.82;8.50;;;40.90;60.80;;;;;;5137017;27;20212;-84
2022/07/25 10:15:46;;;;;;;9.02;8.23;;;40.90;60.40;;;;;;5136801;27;20180;-85
2022/07/25 10:18:16;;;;;;;9.23;7.88;;;41.20;59.60;;;;;;5136791;27;20309;-86
2022/07/25 10:20:46;;;;;;;8.88;7.78;;;41.60;58.30;;;;;;5136955;27;20205;-85
2022/07/25 10:23:19;;;;;;;8.75;7.85;;;41.80;57.70;;;;;;5137828;27;20205;-85
2022/07/25 10:25:59;;;;;;;9.82;7.88;;;41.50;57.30;;;;;;5137581;27;20204;-85
2022/07/25 10:28:39;;;;;;;9.85;7.93;;;40.90;59.00;;;;;;5137831;27;20279;-86
2022/07/25 10:31:20;;;;;;;12.63;7.85;;;41.70;59.40;;;;;;5139671;27;20196;-85
2022/07/25 10:33:57;;;;;;;8.57;7.78;;;41.70;59.00;;;;;;5141212;27;20198;-85
2022/07/25 10:36:32;;;;;;;7.95;7.18;;;41.70;59.10;;;;;;5143997;27;20232;-84
2022/07/25 10:39:01;;;;;;;8.00;7.20;;;41.40;57.80;;;;;;5144596;27;20192;-84
2022/07/25 10:41:30;;;;;;;8.50;7.70;;;41.70;55.50;;;;;;5144462;27;20607;-84
2022/07/25 10:44:02;;;;;;;8.60;7.25;;;41.60;55.00;;;;;;5139736;27;20309;-84
2022/07/25 10:46:35;;;;;;;10.45;6.95;;;41.80;55.60;;;;;;5131344;27;20220;-85
2022/07/25 10:49:06;;;;;;;7.88;7.07;;;42.10;55.20;;;;;;5126686;28;20252;-86
2022/07/25 10:51:36;;;;;;;7.80;6.90;;;42.20;54.10;;;;;;5138343;27;20483;-85
2022/07/25 10:54:14;;;;;;;8.43;6.53;;;42.50;53.40;;;;;;5147412;27;20212;-84
2022/07/25 10:56:56;;;;;;;7.30;6.35;;;42.00;55.10;;;;;;5142398;27;20286;-83
2022/07/25 10:59:32;;;;;;;7.38;6.65;;;41.80;55.80;;;;;;5142885;27;20206;-83
2022/07/25 11:02:00;;;;;;;10.05;6.88;;;41.40;54.00;;;;;;5139962;27;20213;-85
2022/07/25 11:04:29;;;;;;;7.60;6.80;;;41.00;54.10;;;;;;5125745;27;20210;-84
2022/07/25 11:07:07;;;;;;;6.75;6.15;;;41.30;54.30;;;;;;5123268;28;20279;-82
2022/07/25 11:09:35;;;;;;;7.47;6.40;;;41.00;54.30;;;;;;5121826;28;20209;-83
2022/07/25 11:12:04;;;;;;;7.38;6.18;;;41.10;54.00;;;;;;5120967;28;20247;-83
2022/07/25 11:14:37;;;;;;;6.75;6.13;;;41.00;54.80;;;;;;5120117;28;20630;-82
2022/07/25 11:17:14;;;;;;;6.75;6.15;;;41.00;53.20;;;;;;5118071;28;20230;-85
2022/07/25 11:19:44;;;;;;;6.97;6.07;;;40.80;52.80;;;;;;5116820;28;20682;-83
2022/07/25 11:22:13;;;;;;;6.47;5.88;;;40.90;52.80;;;;;;5117996;28;20256;-83
2022/07/25 11:24:42;;;;;;;6.72;6.15;;;40.70;56.30;;;;;;5119243;28;20209;-84
2022/07/25 11:27:13;;;;;;;10.82;6.50;;;40.30;53.70;;;;;;5116234;28;20202;-84
2022/07/25 11:29:43;;;;;;;6.07;5.57;;;40.00;55.50;;;;;;5120410;28;20236;-80
2022/07/25 11:32:12;;;;;;;7.15;6.22;;;40.10;56.40;;;;;;5122882;28;20233;-83
2022/07/25 11:34:43;;;;;;;10.15;5.88;;;39.80;54.40;;;;;;5122150;28;20206;-83
2022/07/25 11:37:14;;;;;;;9.40;6.60;;;39.50;54.50;;;;;;5122371;28;20256;-83
2022/07/25 11:39:44;;;;;;;8.98;6.40;;;39.50;56.10;;;;;;5119580;28;20335;-82
2022/07/25 11:42:15;;;;;;;6.78;6.18;;;39.40;55.10;;;;;;5123742;28;20226;-81
2022/07/25 11:44:47;;;;;;;7.45;6.72;;;39.20;55.20;;;;;;5118975;28;20210;-82
2022/07/25 11:47:24;;;;;;;7.80;6.38;;;39.00;57.20;;;;;;5116111;28;20201;-84
2022/07/25 11:49:56;;;;;;;7.28;6.38;;;38.70;59.10;;;;;;5116780;28;20218;-83
2022/07/25 11:52:33;;;;;;;7.70;6.38;;;38.60;59.60;;;;;;5116465;28;20255;-84
2022/07/25 11:55:03;;;;;;;9.73;6.60;;;38.50;57.60;;;;;;5121867;28;20206;-82
2022/07/25 11:57:35;;;;;;;7.80;5.65;;;38.40;56.80;;;;;;5121159;28;20229;-81
2022/07/25 12:00:09;;;;;;;7.57;5.68;;;38.20;54.60;;;;;;5126681;28;20264;-82
2022/07/25 12:02:37;;;;;;;7.18;5.40;;;38.00;55.20;;;;;;5124557;28;20221;-78
2022/07/25 12:05:07;;;;;;;6.47;5.50;;;37.70;55.60;;;;;;5126232;28;20274;-85
2022/07/25 12:07:43;;;;;;;7.22;5.05;;;37.50;54.60;;;;;;5120682;28;20206;-81
2022/07/25 12:10:15;;;;;;;6.97;5.60;;;37.30;56.10;;;;;;5122150;27;20296;-80
2022/07/25 12:12:47;;;;;;;5.90;5.40;;;37.20;56.50;;;;;;5139318;27;20273;-79
2022/07/25 12:15:24;;;;;;;5.93;5.32;;;37.20;56.70;;;;;;5122992;27;20307;-81
2022/07/25 12:17:54;;;;;;;6.55;5.25;;;37.10;55.00;;;;;;5121328;28;20229;-81
2022/07/25 12:20:26;;;;;;;6.95;5.38;;;37.00;55.30;;;;;;5121461;28;20218;-82
2022/07/25 12:23:00;;;;;;;7.82;5.20;;;37.10;56.00;;;;;;5124101;27;20221;-83
2022/07/25 12:25:29;;;;;;;6.90;5.20;;;36.90;55.00;;;;;;5139360;27;20628;-80
2022/07/25 12:27:59;;;;;;;6.47;4.90;;;36.90;55.60;;;;;;5138133;27;20209;-81
2022/07/25 12:30:30;;;;;;;7.22;5.85;;;36.80;55.60;;;;;;5116151;28;20206;-79
2022/07/25 12:32:59;;;;;;;6.32;5.05;;;36.70;56.10;;;;;;5115376;28;20183;-82
2022/07/25 12:35:28;;;;;;;9.50;5.15;;;36.60;55.50;;;;;;5122519;27;20635;-82
2022/07/25 12:37:57;;;;;;;5.38;4.88;;;36.80;56.70;;;;;;5128538;27;20573;-81
2022/07/25 12:40:29;;;;;;;8.82;5.40;;;36.90;57.40;;;;;;5157530;27;20208;-79
2022/07/25 12:42:58;;;;;;;6.35;4.95;;;36.90;55.10;;;;;;5149120;27;20309;-81
2022/07/25 12:45:28;;;;;;;5.15;4.65;;;37.10;55.00;;;;;;5135125;27;20201;-80
2022/07/25 12:47:56;;;;;;;7.78;5.20;;;36.90;52.30;;;;;;5136853;27;20201;-80
2022/07/25 12:50:25;;;;;;;6.07;5.20;;;36.90;53.50;;;;;;5133743;27;20201;-83
2022/07/25 12:52:55;;;;;;;6.80;4.57;;;37.10;55.40;;;;;;5134839;27;20227;-80
2022/07/25 12:55:24;;;;;;;6.57;5.10;;;37.10;54.50;;;;;;5135860;27;20223;-80